Time;durP1;ratioP1;P1;durP2;ratioP2;P2;SDS_P1;SDS_P2;PMS_P1;PMS_P2;Temp;Humidity;BMP_temperature;BMP_pressure;BME280_temperature;BME280_humidity;BME280_pressure;Samples;Min_cycle;Max_cycle;Signal;HPM_P1;HPM_P2
2023/07/11 00:00:06;;;;;;;2.53;2.03;;;;;;;;;;622523;23;1349;-77
2023/07/11 00:00:22;;;;;;;4.57;2.17;;;;;;;;;;624436;23;804;-76
2023/07/11 00:00:38;;;;;;;5.40;2.10;;;;;;;;;;626208;23;1358;-77
2023/07/11 00:00:53;;;;;;;3.72;2.00;;;;;;;;;;624148;23;1399;-77
2023/07/11 00:01:13;;;;;;;3.30;1.90;;;;;;;;;;624635;23;1302;-76
2023/07/11 00:01:29;;;;;;;4.50;2.00;;;;;;;;;;622822;23;1243;-76
2023/07/11 00:01:44;;;;;;;5.20;2.10;;;;;;;;;;625104;23;1159;-76
2023/07/11 00:01:59;;;;;;;5.00;2.30;;;;;;;;;;625363;23;1101;-76
2023/07/11 00:02:15;;;;;;;4.03;2.22;;;;;;;;;;625847;23;1278;-77
2023/07/11 00:02:31;;;;;;;3.50;1.97;;;;;;;;;;625424;23;926;-76
2023/07/11 00:02:47;;;;;;;4.13;1.92;;;;;;;;;;624276;23;1294;-76
2023/07/11 00:03:03;;;;;;;4.97;2.20;;;;;;;;;;623182;23;1308;-76
2023/07/11 00:03:18;;;;;;;3.80;2.10;;;;;;;;;;625491;23;1283;-76
2023/07/11 00:03:33;;;;;;;2.80;2.00;;;;;;;;;;624436;23;1280;-77
2023/07/11 00:03:49;;;;;;;4.38;2.13;;;;;;;;;;624927;23;827;-76
2023/07/11 00:04:04;;;;;;;5.20;2.13;;;;;;;;;;625596;23;1377;-76
2023/07/11 00:04:19;;;;;;;3.70;2.00;;;;;;;;;;623872;23;1203;-76
2023/07/11 00:04:35;;;;;;;3.00;1.90;;;;;;;;;;623990;23;1184;-76
2023/07/11 00:04:51;;;;;;;3.38;2.00;;;;;;;;;;625954;23;918;-76
2023/07/11 00:05:07;;;;;;;3.78;2.13;;;;;;;;;;624117;23;1200;-76
2023/07/11 00:05:23;;;;;;;4.50;2.10;;;;;;;;;;624727;23;987;-77
2023/07/11 00:05:39;;;;;;;4.13;2.05;;;;;;;;;;624863;23;1246;-76
2023/07/11 00:06:03;;;;;;;3.15;2.00;;;;;;;;;;625550;23;943;-77
2023/07/11 00:06:19;;;;;;;3.25;2.00;;;;;;;;;;626816;23;1064;-77
2023/07/11 00:06:35;;;;;;;3.58;2.00;;;;;;;;;;627365;23;1330;-76
2023/07/11 00:06:52;;;;;;;5.22;2.08;;;;;;;;;;627057;23;815;-76
2023/07/11 00:07:08;;;;;;;4.55;2.20;;;;;;;;;;630990;23;1432;-77
2023/07/11 00:07:23;;;;;;;3.42;2.20;;;;;;;;;;630326;23;1292;-77
2023/07/11 00:07:39;;;;;;;3.30;1.90;;;;;;;;;;627508;23;1243;-77
2023/07/11 00:07:54;;;;;;;3.60;1.90;;;;;;;;;;627734;23;944;-77
2023/07/11 00:08:10;;;;;;;3.30;2.00;;;;;;;;;;627304;23;1118;-77
2023/07/11 00:08:25;;;;;;;3.38;2.00;;;;;;;;;;624983;23;1316;-76
2023/07/11 00:08:41;;;;;;;3.70;2.00;;;;;;;;;;622309;23;1180;-77
2023/07/11 00:08:56;;;;;;;3.42;2.00;;;;;;;;;;624899;23;1235;-77
2023/07/11 00:09:11;;;;;;;3.13;1.93;;;;;;;;;;624297;23;1201;-76
2023/07/11 00:09:27;;;;;;;3.60;2.00;;;;;;;;;;624941;23;917;-77
2023/07/11 00:09:47;;;;;;;3.83;2.10;;;;;;;;;;621477;23;1256;-77
2023/07/11 00:10:03;;;;;;;3.40;2.10;;;;;;;;;;624912;23;1371;-76
2023/07/11 00:10:19;;;;;;;3.88;2.30;;;;;;;;;;624770;23;776;-76
2023/07/11 00:10:35;;;;;;;4.25;2.20;;;;;;;;;;626372;23;823;-77
2023/07/11 00:10:50;;;;;;;5.00;1.90;;;;;;;;;;625839;23;1266;-77
2023/07/11 00:11:09;;;;;;;4.82;2.00;;;;;;;;;;624140;23;1194;-77
2023/07/11 00:11:24;;;;;;;3.53;2.10;;;;;;;;;;624515;23;838;-77
2023/07/11 00:11:40;;;;;;;2.47;1.90;;;;;;;;;;626913;23;1164;-77
2023/07/11 00:11:55;;;;;;;3.30;2.00;;;;;;;;;;628873;23;811;-76
2023/07/11 00:12:10;;;;;;;3.80;2.10;;;;;;;;;;630362;23;1277;-76
2023/07/11 00:12:28;;;;;;;3.20;2.20;;;;;;;;;;631015;23;1298;-76
2023/07/11 00:12:44;;;;;;;3.70;2.20;;;;;;;;;;627467;23;1295;-76
2023/07/11 00:13:00;;;;;;;3.75;2.00;;;;;;;;;;627644;23;791;-76
2023/07/11 00:13:15;;;;;;;3.87;1.90;;;;;;;;;;624664;23;1365;-76
2023/07/11 00:13:32;;;;;;;3.95;2.00;;;;;;;;;;626098;23;1333;-77
2023/07/11 00:13:50;;;;;;;3.28;2.00;;;;;;;;;;628369;23;851;-77
2023/07/11 00:14:05;;;;;;;3.33;2.00;;;;;;;;;;623734;23;1264;-77
2023/07/11 00:14:21;;;;;;;3.47;2.17;;;;;;;;;;625274;23;1173;-77
2023/07/11 00:14:36;;;;;;;3.97;2.20;;;;;;;;;;625254;23;1929;-77
2023/07/11 00:14:51;;;;;;;4.40;2.10;;;;;;;;;;624880;23;1254;-77
2023/07/11 00:15:13;;;;;;;3.67;1.90;;;;;;;;;;624208;23;1247;-77
2023/07/11 00:15:28;;;;;;;2.92;1.92;;;;;;;;;;621297;23;1514;-76
2023/07/11 00:15:44;;;;;;;3.23;2.10;;;;;;;;;;624635;23;1180;-76
2023/07/11 00:16:04;;;;;;;3.90;2.10;;;;;;;;;;624319;23;910;-76
2023/07/11 00:16:19;;;;;;;4.55;2.10;;;;;;;;;;625032;23;859;-76
2023/07/11 00:16:35;;;;;;;3.63;2.10;;;;;;;;;;623622;23;1448;-76
2023/07/11 00:16:51;;;;;;;3.13;2.10;;;;;;;;;;624340;23;1466;-77
2023/07/11 00:17:06;;;;;;;3.17;2.10;;;;;;;;;;623869;23;1279;-76
2023/07/11 00:17:23;;;;;;;3.53;2.13;;;;;;;;;;621764;23;1247;-76
2023/07/11 00:17:39;;;;;;;3.40;2.17;;;;;;;;;;622253;23;1502;-76
2023/07/11 00:17:54;;;;;;;2.93;2.10;;;;;;;;;;624099;23;877;-77
2023/07/11 00:18:09;;;;;;;3.42;2.10;;;;;;;;;;624102;23;839;-77
2023/07/11 00:18:25;;;;;;;4.37;2.00;;;;;;;;;;621903;23;1244;-76
2023/07/11 00:19:00;;;;;;;4.40;2.00;;;;;;;;;;624116;23;910;-76
2023/07/11 00:19:19;;;;;;;3.47;1.85;;;;;;;;;;624145;23;1267;-77
2023/07/11 00:19:52;;;;;;;4.20;2.10;;;;;;;;;;629514;23;1058;-76
2023/07/11 00:20:11;;;;;;;3.47;1.90;;;;;;;;;;630855;23;846;-76
2023/07/11 00:20:27;;;;;;;3.60;2.22;;;;;;;;;;630706;23;1399;-77
2023/07/11 00:20:42;;;;;;;3.60;2.27;;;;;;;;;;630517;23;819;-76
2023/07/11 00:20:57;;;;;;;3.73;2.10;;;;;;;;;;627044;23;1121;-76
2023/07/11 00:21:13;;;;;;;4.75;2.20;;;;;;;;;;626529;23;1174;-76
2023/07/11 00:21:29;;;;;;;4.33;2.17;;;;;;;;;;623530;23;1229;-77
2023/07/11 00:21:44;;;;;;;2.33;1.90;;;;;;;;;;623666;23;1014;-76
2023/07/11 00:21:59;;;;;;;3.20;1.70;;;;;;;;;;625040;23;1314;-77
2023/07/11 00:22:15;;;;;;;4.47;1.75;;;;;;;;;;624679;23;812;-76
2023/07/11 00:22:31;;;;;;;4.80;2.00;;;;;;;;;;628133;23;815;-76
2023/07/11 00:22:50;;;;;;;4.45;1.90;;;;;;;;;;624577;23;1433;-76
2023/07/11 00:23:05;;;;;;;3.60;2.00;;;;;;;;;;624330;23;1362;-76
2023/07/11 00:23:21;;;;;;;2.80;2.00;;;;;;;;;;625694;23;804;-76
2023/07/11 00:23:36;;;;;;;2.97;2.00;;;;;;;;;;624627;23;1234;-76
2023/07/11 00:23:52;;;;;;;4.18;2.13;;;;;;;;;;625944;23;1359;-77
2023/07/11 00:24:07;;;;;;;4.23;2.20;;;;;;;;;;624861;23;1334;-77
2023/07/11 00:24:23;;;;;;;3.97;2.03;;;;;;;;;;620779;23;1242;-77
2023/07/11 00:24:38;;;;;;;4.73;2.10;;;;;;;;;;621416;23;1158;-76
2023/07/11 00:24:53;;;;;;;3.97;2.03;;;;;;;;;;621295;23;1435;-76
2023/07/11 00:25:10;;;;;;;2.65;1.80;;;;;;;;;;620967;23;1386;-77
2023/07/11 00:25:25;;;;;;;3.20;1.95;;;;;;;;;;624998;23;1332;-76
2023/07/11 00:25:40;;;;;;;3.63;2.07;;;;;;;;;;627143;23;1204;-77
2023/07/11 00:25:56;;;;;;;4.20;2.03;;;;;;;;;;627145;23;1188;-76
2023/07/11 00:26:11;;;;;;;4.17;2.00;;;;;;;;;;626943;23;1203;-77
2023/07/11 00:26:27;;;;;;;3.83;2.00;;;;;;;;;;624632;23;1218;-76
2023/07/11 00:26:42;;;;;;;3.47;1.90;;;;;;;;;;624095;23;1368;-76
2023/07/11 00:26:57;;;;;;;2.73;1.80;;;;;;;;;;620303;23;1132;-76
2023/07/11 00:27:15;;;;;;;3.75;1.90;;;;;;;;;;620802;23;1315;-76
2023/07/11 00:27:31;;;;;;;3.75;1.90;;;;;;;;;;624252;23;1240;-76
2023/07/11 00:27:46;;;;;;;3.10;1.90;;;;;;;;;;621421;23;1213;-77
2023/07/11 00:28:01;;;;;;;2.87;1.90;;;;;;;;;;619053;23;864;-77
2023/07/11 00:28:17;;;;;;;2.40;1.73;;;;;;;;;;620512;23;871;-76
2023/07/11 00:28:32;;;;;;;2.23;1.70;;;;;;;;;;625692;23;966;-77
2023/07/11 00:28:48;;;;;;;3.10;1.95;;;;;;;;;;627470;23;1212;-77
2023/07/11 00:29:20;;;;;;;4.47;2.10;;;;;;;;;;624843;23;1235;-76
2023/07/11 00:29:35;;;;;;;3.08;1.95;;;;;;;;;;624744;23;946;-76
2023/07/11 00:29:51;;;;;;;3.13;1.90;;;;;;;;;;624607;23;1450;-76
2023/07/11 00:30:08;;;;;;;2.95;1.80;;;;;;;;;;621957;23;1434;-76
2023/07/11 00:30:23;;;;;;;3.67;1.80;;;;;;;;;;621921;23;1236;-76
2023/07/11 00:30:41;;;;;;;3.60;1.90;;;;;;;;;;621773;23;1614;-76
2023/07/11 00:30:56;;;;;;;4.10;2.10;;;;;;;;;;621462;23;1255;-76
2023/07/11 00:31:12;;;;;;;3.83;2.15;;;;;;;;;;622178;23;1189;-77
2023/07/11 00:31:27;;;;;;;3.70;2.10;;;;;;;;;;622095;23;1183;-77
2023/07/11 00:31:43;;;;;;;3.87;2.00;;;;;;;;;;621931;23;1015;-76
2023/07/11 00:31:58;;;;;;;3.30;2.00;;;;;;;;;;621806;23;808;-76
2023/07/11 00:32:13;;;;;;;4.03;2.10;;;;;;;;;;622389;23;1147;-76
2023/07/11 00:32:29;;;;;;;4.67;2.13;;;;;;;;;;622626;23;1272;-76
2023/07/11 00:32:44;;;;;;;3.63;2.00;;;;;;;;;;625371;23;1286;-76
2023/07/11 00:33:00;;;;;;;2.90;1.90;;;;;;;;;;627663;23;867;-77
2023/07/11 00:33:15;;;;;;;4.00;1.98;;;;;;;;;;625001;23;1179;-77
2023/07/11 00:33:30;;;;;;;4.33;1.90;;;;;;;;;;624532;23;1160;-77
2023/07/11 00:33:46;;;;;;;3.17;2.00;;;;;;;;;;624325;23;1200;-77
2023/07/11 00:34:01;;;;;;;3.72;2.10;;;;;;;;;;624724;23;847;-77
2023/07/11 00:34:16;;;;;;;4.53;2.07;;;;;;;;;;624660;23;867;-76
2023/07/11 00:34:32;;;;;;;4.27;2.00;;;;;;;;;;624277;23;1960;-76
2023/07/11 00:34:47;;;;;;;3.65;1.90;;;;;;;;;;623530;23;1211;-77
2023/07/11 00:35:03;;;;;;;3.50;2.00;;;;;;;;;;622152;23;1174;-76
2023/07/11 00:35:18;;;;;;;3.20;1.92;;;;;;;;;;622285;23;1188;-77
2023/07/11 00:35:34;;;;;;;3.40;2.00;;;;;;;;;;620732;23;1243;-77
2023/07/11 00:35:53;;;;;;;3.33;2.00;;;;;;;;;;623799;23;1357;-76
2023/07/11 00:36:09;;;;;;;2.90;1.90;;;;;;;;;;620654;23;935;-76
2023/07/11 00:36:24;;;;;;;3.57;2.17;;;;;;;;;;623244;23;1267;-76
2023/07/11 00:36:39;;;;;;;3.22;2.20;;;;;;;;;;621007;23;1430;-77
2023/07/11 00:36:54;;;;;;;2.53;1.90;;;;;;;;;;622090;23;1006;-76
2023/07/11 00:37:10;;;;;;;3.70;1.83;;;;;;;;;;622920;23;963;-77
2023/07/11 00:37:25;;;;;;;4.95;1.90;;;;;;;;;;626502;23;1200;-76
2023/07/11 00:37:41;;;;;;;4.17;2.10;;;;;;;;;;626736;23;1437;-77
2023/07/11 00:37:56;;;;;;;2.88;1.85;;;;;;;;;;624949;23;1191;-76
2023/07/11 00:38:12;;;;;;;2.50;1.80;;;;;;;;;;627118;23;981;-77
2023/07/11 00:38:28;;;;;;;3.10;2.00;;;;;;;;;;627999;23;1259;-76
2023/07/11 00:38:43;;;;;;;3.77;2.00;;;;;;;;;;626588;23;1175;-76
2023/07/11 00:38:58;;;;;;;3.70;2.00;;;;;;;;;;628367;23;861;-77
2023/07/11 00:39:16;;;;;;;3.73;2.07;;;;;;;;;;627916;23;847;-77
2023/07/11 00:39:34;;;;;;;3.45;1.90;;;;;;;;;;629341;23;1372;-76
2023/07/11 00:39:49;;;;;;;2.95;1.92;;;;;;;;;;629257;23;1361;-77
2023/07/11 00:40:05;;;;;;;2.65;1.83;;;;;;;;;;629902;23;988;-77
2023/07/11 00:40:20;;;;;;;2.47;1.77;;;;;;;;;;632435;23;1257;-77
2023/07/11 00:40:40;;;;;;;3.35;1.92;;;;;;;;;;630204;23;1287;-76
2023/07/11 00:40:56;;;;;;;3.70;2.00;;;;;;;;;;627724;23;1318;-76
2023/07/11 00:41:11;;;;;;;3.10;1.87;;;;;;;;;;624981;23;1168;-76
2023/07/11 00:41:26;;;;;;;2.53;1.83;;;;;;;;;;621393;23;1243;-76
2023/07/11 00:41:42;;;;;;;2.63;1.97;;;;;;;;;;621404;23;986;-77
2023/07/11 00:41:58;;;;;;;2.70;1.80;;;;;;;;;;619078;23;1307;-77
2023/07/11 00:42:14;;;;;;;2.45;1.70;;;;;;;;;;620766;23;970;-76
2023/07/11 00:42:29;;;;;;;2.60;1.77;;;;;;;;;;622778;23;1267;-77
2023/07/11 00:42:49;;;;;;;3.27;1.90;;;;;;;;;;621314;23;1240;-76
2023/07/11 00:43:05;;;;;;;3.15;2.10;;;;;;;;;;622722;23;1322;-76
2023/07/11 00:43:21;;;;;;;2.78;1.90;;;;;;;;;;623782;23;1345;-76
2023/07/11 00:43:36;;;;;;;2.88;1.90;;;;;;;;;;625556;23;1369;-77
2023/07/11 00:43:52;;;;;;;3.40;1.95;;;;;;;;;;624464;23;1361;-77
2023/07/11 00:44:15;;;;;;;2.93;1.90;;;;;;;;;;624334;23;799;-76
2023/07/11 00:44:48;;;;;;;2.45;1.70;;;;;;;;;;624438;23;1096;-77
2023/07/11 00:45:03;;;;;;;2.85;1.90;;;;;;;;;;627623;23;957;-76
2023/07/11 00:45:56;;;;;;;2.83;1.80;;;;;;;;;;629474;23;877;-76
2023/07/11 00:46:14;;;;;;;3.40;1.98;;;;;;;;;;633963;23;1414;-77
2023/07/11 00:46:30;;;;;;;3.13;1.95;;;;;;;;;;631195;23;1318;-77
2023/07/11 00:46:45;;;;;;;4.13;2.03;;;;;;;;;;630426;23;784;-76
2023/07/11 00:47:00;;;;;;;3.87;1.90;;;;;;;;;;627865;23;1144;-76
2023/07/11 00:47:16;;;;;;;2.75;1.75;;;;;;;;;;625640;23;1362;-77
2023/07/11 00:47:31;;;;;;;2.80;1.90;;;;;;;;;;621672;23;1153;-77
2023/07/11 00:47:47;;;;;;;3.75;2.13;;;;;;;;;;621839;23;1029;-76
2023/07/11 00:48:02;;;;;;;4.37;2.03;;;;;;;;;;622919;23;1323;-76
2023/07/11 00:48:19;;;;;;;3.77;1.90;;;;;;;;;;621872;23;1275;-76
2023/07/11 00:48:38;;;;;;;2.88;1.90;;;;;;;;;;621943;23;1364;-77
2023/07/11 00:48:57;;;;;;;2.70;1.90;;;;;;;;;;621706;23;1512;-77
2023/07/11 00:49:17;;;;;;;4.25;2.00;;;;;;;;;;618452;23;1334;-76
2023/07/11 00:49:33;;;;;;;2.70;1.92;;;;;;;;;;621309;23;1382;-77
2023/07/11 00:49:52;;;;;;;2.97;2.00;;;;;;;;;;621458;23;1411;-77
2023/07/11 00:50:08;;;;;;;3.53;2.00;;;;;;;;;;620909;23;1256;-78
2023/07/11 00:50:25;;;;;;;3.72;2.00;;;;;;;;;;622487;23;1029;-77
2023/07/11 00:50:40;;;;;;;3.08;1.90;;;;;;;;;;624891;23;907;-76
2023/07/11 00:50:56;;;;;;;2.87;1.83;;;;;;;;;;621952;23;1157;-76
2023/07/11 00:51:15;;;;;;;2.58;1.85;;;;;;;;;;624616;23;1321;-76
2023/07/11 00:51:33;;;;;;;2.90;1.90;;;;;;;;;;624220;23;1442;-77
2023/07/11 00:51:56;;;;;;;2.80;1.90;;;;;;;;;;624193;23;1354;-76
2023/07/11 00:52:13;;;;;;;4.43;2.03;;;;;;;;;;628056;23;871;-76
2023/07/11 00:52:29;;;;;;;3.72;2.17;;;;;;;;;;627283;23;874;-76
2023/07/11 00:52:44;;;;;;;2.45;2.00;;;;;;;;;;628721;23;766;-76
2023/07/11 00:52:59;;;;;;;3.27;1.97;;;;;;;;;;628175;23;1194;-76
2023/07/11 00:53:15;;;;;;;3.90;1.90;;;;;;;;;;630676;23;1279;-76
2023/07/11 00:53:31;;;;;;;3.78;2.03;;;;;;;;;;630967;23;858;-76
2023/07/11 00:53:46;;;;;;;4.15;2.20;;;;;;;;;;630055;23;1304;-76
2023/07/11 00:54:05;;;;;;;5.28;2.30;;;;;;;;;;626713;23;1227;-76
2023/07/11 00:54:24;;;;;;;3.50;2.03;;;;;;;;;;626999;23;1286;-77
2023/07/11 00:55:02;;;;;;;3.00;1.95;;;;;;;;;;626721;23;1960;-77
2023/07/11 00:55:18;;;;;;;3.40;1.88;;;;;;;;;;624327;23;1159;-76
2023/07/11 00:55:33;;;;;;;2.80;1.90;;;;;;;;;;624112;23;1374;-76
2023/07/11 00:55:49;;;;;;;4.57;2.07;;;;;;;;;;626731;23;882;-76
2023/07/11 00:56:07;;;;;;;4.47;1.85;;;;;;;;;;627314;23;1313;-76
2023/07/11 00:56:25;;;;;;;3.33;1.75;;;;;;;;;;626937;23;855;-76
2023/07/11 00:56:44;;;;;;;3.33;1.90;;;;;;;;;;627420;23;1030;-77
2023/07/11 00:57:03;;;;;;;2.70;1.80;;;;;;;;;;628604;23;1149;-77
2023/07/11 00:57:22;;;;;;;2.97;1.95;;;;;;;;;;630226;23;907;-76
2023/07/11 00:57:40;;;;;;;3.20;2.10;;;;;;;;;;633528;23;985;-76
2023/07/11 00:57:56;;;;;;;3.38;2.00;;;;;;;;;;633193;23;1333;-76
2023/07/11 00:58:14;;;;;;;3.05;1.90;;;;;;;;;;630576;23;1290;-76
2023/07/11 00:58:31;;;;;;;4.13;2.08;;;;;;;;;;627740;23;1426;-76
2023/07/11 00:58:47;;;;;;;3.90;1.98;;;;;;;;;;627398;23;990;-76
2023/07/11 00:59:03;;;;;;;3.85;2.05;;;;;;;;;;627560;23;1426;-76
2023/07/11 00:59:21;;;;;;;3.13;2.00;;;;;;;;;;627094;23;1556;-76
2023/07/11 00:59:37;;;;;;;4.15;2.00;;;;;;;;;;628435;23;1219;-76
2023/07/11 00:59:52;;;;;;;3.97;2.00;;;;;;;;;;624182;23;1310;-77
2023/07/11 01:00:08;;;;;;;3.40;2.00;;;;;;;;;;627336;23;1286;-76
2023/07/11 01:00:25;;;;;;;4.22;2.10;;;;;;;;;;624829;23;1377;-76
2023/07/11 01:00:40;;;;;;;3.90;2.13;;;;;;;;;;624401;23;1200;-77
2023/07/11 01:00:57;;;;;;;3.53;2.10;;;;;;;;;;624623;23;882;-77
2023/07/11 01:01:14;;;;;;;3.95;2.20;;;;;;;;;;621201;23;1353;-77
2023/07/11 01:01:30;;;;;;;4.03;2.22;;;;;;;;;;623759;23;1395;-77
2023/07/11 01:01:54;;;;;;;3.30;2.00;;;;;;;;;;621024;23;1402;-76
2023/07/11 01:02:13;;;;;;;4.35;2.08;;;;;;;;;;624381;23;938;-77
2023/07/11 01:02:29;;;;;;;3.33;1.90;;;;;;;;;;628169;23;1014;-77
2023/07/11 01:02:44;;;;;;;3.67;1.93;;;;;;;;;;626900;23;1357;-77
2023/07/11 01:02:59;;;;;;;3.97;1.95;;;;;;;;;;628079;23;1194;-76
2023/07/11 01:03:14;;;;;;;3.73;2.10;;;;;;;;;;630403;23;1144;-77
2023/07/11 01:03:30;;;;;;;6.80;2.27;;;;;;;;;;627738;23;1326;-76
2023/07/11 01:03:47;;;;;;;10.37;2.30;;;;;;;;;;627382;23;1366;-76
2023/07/11 01:04:05;;;;;;;3.42;2.10;;;;;;;;;;627704;23;1255;-76
2023/07/11 01:04:21;;;;;;;3.97;2.10;;;;;;;;;;627288;23;1362;-76
2023/07/11 01:04:38;;;;;;;3.43;2.00;;;;;;;;;;627537;23;1240;-76
2023/07/11 01:04:54;;;;;;;5.28;2.17;;;;;;;;;;627467;23;1251;-76
2023/07/11 01:05:10;;;;;;;5.13;2.20;;;;;;;;;;624628;23;1573;-76
2023/07/11 01:05:25;;;;;;;4.27;2.17;;;;;;;;;;621765;23;1239;-76
2023/07/11 01:05:41;;;;;;;4.60;2.20;;;;;;;;;;621228;23;1249;-77
2023/07/11 01:05:57;;;;;;;4.07;2.20;;;;;;;;;;621244;23;1154;-76
2023/07/11 01:06:16;;;;;;;3.55;2.13;;;;;;;;;;624788;23;1584;-76
2023/07/11 01:06:32;;;;;;;3.55;2.10;;;;;;;;;;624244;23;998;-76
2023/07/11 01:06:47;;;;;;;2.83;2.08;;;;;;;;;;624528;23;1216;-77
2023/07/11 01:07:06;;;;;;;3.60;2.03;;;;;;;;;;624827;23;1148;-76
2023/07/11 01:07:28;;;;;;;3.17;2.00;;;;;;;;;;622283;23;844;-76
2023/07/11 01:07:44;;;;;;;3.13;2.00;;;;;;;;;;625142;23;840;-76
2023/07/11 01:07:59;;;;;;;3.28;2.00;;;;;;;;;;627644;23;815;-76
2023/07/11 01:08:14;;;;;;;3.58;2.00;;;;;;;;;;624955;23;1327;-77
2023/07/11 01:08:30;;;;;;;3.60;2.10;;;;;;;;;;621861;23;1148;-77
2023/07/11 01:08:48;;;;;;;3.70;2.00;;;;;;;;;;624216;23;1482;-76
2023/07/11 01:09:04;;;;;;;3.53;2.05;;;;;;;;;;628029;23;1292;-76
2023/07/11 01:09:19;;;;;;;3.97;2.30;;;;;;;;;;627483;23;1240;-77
2023/07/11 01:09:35;;;;;;;4.97;2.27;;;;;;;;;;627513;23;1194;-76
2023/07/11 01:09:50;;;;;;;4.63;2.20;;;;;;;;;;627386;23;1357;-76
2023/07/11 01:10:06;;;;;;;5.60;2.22;;;;;;;;;;627327;23;776;-76
2023/07/11 01:10:21;;;;;;;5.73;2.30;;;;;;;;;;626908;23;1174;-77
2023/07/11 01:10:37;;;;;;;4.57;2.30;;;;;;;;;;625346;23;1180;-76
2023/07/11 01:10:52;;;;;;;3.90;2.10;;;;;;;;;;627439;23;1152;-76
2023/07/11 01:11:08;;;;;;;3.53;2.00;;;;;;;;;;627106;23;902;-77
2023/07/11 01:11:27;;;;;;;4.93;2.00;;;;;;;;;;627543;23;1304;-76
2023/07/11 01:11:52;;;;;;;5.68;2.08;;;;;;;;;;628120;23;1098;-76
2023/07/11 01:12:12;;;;;;;5.20;2.20;;;;;;;;;;628959;23;1061;-76
2023/07/11 01:12:28;;;;;;;4.95;2.10;;;;;;;;;;631045;23;815;-76
2023/07/11 01:12:47;;;;;;;4.60;2.20;;;;;;;;;;628223;23;1234;-76
2023/07/11 01:13:05;;;;;;;3.42;1.90;;;;;;;;;;624212;23;1310;-76
2023/07/11 01:13:20;;;;;;;3.17;1.92;;;;;;;;;;625660;23;827;-76
2023/07/11 01:13:36;;;;;;;4.23;2.00;;;;;;;;;;624834;23;1196;-76
2023/07/11 01:13:51;;;;;;;4.65;2.17;;;;;;;;;;623624;23;1188;-76
2023/07/11 01:14:07;;;;;;;5.15;2.28;;;;;;;;;;623496;23;1111;-76
2023/07/11 01:14:23;;;;;;;6.00;2.33;;;;;;;;;;624265;23;955;-75
2023/07/11 01:14:45;;;;;;;4.68;2.20;;;;;;;;;;626574;23;2215;-77
2023/07/11 01:15:01;;;;;;;3.45;2.03;;;;;;;;;;626646;23;1625;-76
2023/07/11 01:15:16;;;;;;;3.70;2.00;;;;;;;;;;627136;23;1097;-77
2023/07/11 01:15:32;;;;;;;4.63;2.00;;;;;;;;;;629781;23;789;-77
2023/07/11 01:15:48;;;;;;;5.03;2.30;;;;;;;;;;627579;23;1172;-75
2023/07/11 01:16:04;;;;;;;4.18;2.40;;;;;;;;;;630165;23;1138;-76
2023/07/11 01:16:20;;;;;;;4.20;2.20;;;;;;;;;;631024;23;814;-76
2023/07/11 01:16:43;;;;;;;4.35;2.13;;;;;;;;;;627372;23;1329;-76
2023/07/11 01:16:58;;;;;;;4.22;1.83;;;;;;;;;;630266;23;866;-77
2023/07/11 01:17:27;;;;;;;4.80;2.00;;;;;;;;;;630179;23;1253;-76
2023/07/11 01:17:42;;;;;;;3.42;1.92;;;;;;;;;;633004;23;1303;-76
2023/07/11 01:17:58;;;;;;;2.90;1.95;;;;;;;;;;630630;23;1258;-76
2023/07/11 01:18:13;;;;;;;3.37;2.10;;;;;;;;;;627591;23;1289;-77
2023/07/11 01:18:28;;;;;;;3.83;2.10;;;;;;;;;;624279;23;1318;-76
2023/07/11 01:18:44;;;;;;;3.08;1.92;;;;;;;;;;623945;23;1355;-77
2023/07/11 01:18:59;;;;;;;3.57;2.07;;;;;;;;;;624409;23;884;-76
2023/07/11 01:19:15;;;;;;;4.30;2.03;;;;;;;;;;624232;23;1523;-76
2023/07/11 01:19:31;;;;;;;3.37;1.93;;;;;;;;;;624168;23;1270;-77
2023/07/11 01:19:46;;;;;;;2.90;2.05;;;;;;;;;;625019;23;1269;-77
2023/07/11 01:20:05;;;;;;;3.80;2.10;;;;;;;;;;625869;23;886;-77
2023/07/11 01:20:23;;;;;;;3.97;2.00;;;;;;;;;;625180;23;1290;-76
2023/07/11 01:20:39;;;;;;;3.55;2.10;;;;;;;;;;621634;23;1314;-76
2023/07/11 01:20:54;;;;;;;6.47;2.25;;;;;;;;;;622126;23;1172;-76
2023/07/11 01:21:19;;;;;;;11.73;2.20;;;;;;;;;;624537;23;1251;-76
2023/07/11 01:21:35;;;;;;;10.32;2.20;;;;;;;;;;627969;23;1389;-76
2023/07/11 01:21:51;;;;;;;10.35;2.33;;;;;;;;;;627677;23;1175;-76
2023/07/11 01:22:07;;;;;;;7.50;2.40;;;;;;;;;;624396;23;1346;-77
2023/07/11 01:22:23;;;;;;;4.63;2.40;;;;;;;;;;621461;23;1416;-76
2023/07/11 01:22:39;;;;;;;4.88;2.30;;;;;;;;;;621415;23;1050;-77
2023/07/11 01:22:55;;;;;;;4.47;2.20;;;;;;;;;;624459;23;1396;-77
2023/07/11 01:23:11;;;;;;;4.78;2.17;;;;;;;;;;624221;23;1489;-77
2023/07/11 01:23:26;;;;;;;4.30;2.10;;;;;;;;;;624453;23;855;-76
2023/07/11 01:23:42;;;;;;;4.90;2.10;;;;;;;;;;625111;23;1263;-76
2023/07/11 01:23:57;;;;;;;5.07;2.30;;;;;;;;;;625938;23;1302;-77
2023/07/11 01:24:33;;;;;;;3.67;2.20;;;;;;;;;;628325;23;784;-77
2023/07/11 01:24:50;;;;;;;3.63;2.00;;;;;;;;;;628594;23;1145;-77
2023/07/11 01:25:09;;;;;;;4.70;2.30;;;;;;;;;;629872;23;1315;-76
2023/07/11 01:25:24;;;;;;;4.75;2.40;;;;;;;;;;627532;23;1387;-76
2023/07/11 01:25:40;;;;;;;4.63;2.30;;;;;;;;;;623642;23;1119;-76
2023/07/11 01:26:04;;;;;;;4.75;2.25;;;;;;;;;;626999;23;1215;-76
2023/07/11 01:26:19;;;;;;;6.15;2.30;;;;;;;;;;626985;23;1239;-77
2023/07/11 01:26:34;;;;;;;4.72;2.30;;;;;;;;;;627632;23;1275;-77
2023/07/11 01:26:49;;;;;;;3.63;2.20;;;;;;;;;;628136;23;834;-76
2023/07/11 01:27:06;;;;;;;3.72;2.13;;;;;;;;;;627615;23;1212;-77
2023/07/11 01:27:22;;;;;;;3.78;2.10;;;;;;;;;;624782;23;1222;-77
2023/07/11 01:27:40;;;;;;;3.55;2.08;;;;;;;;;;621387;23;1280;-76
2023/07/11 01:27:55;;;;;;;4.65;2.25;;;;;;;;;;621047;23;1394;-76
2023/07/11 01:28:12;;;;;;;4.75;2.30;;;;;;;;;;621603;23;1312;-77
2023/07/11 01:28:28;;;;;;;4.15;2.20;;;;;;;;;;621611;23;1251;-76
2023/07/11 01:28:44;;;;;;;4.30;2.28;;;;;;;;;;620754;23;1296;-76
2023/07/11 01:28:59;;;;;;;3.80;2.37;;;;;;;;;;622780;23;1288;-76
2023/07/11 01:29:14;;;;;;;3.22;2.20;;;;;;;;;;623282;23;1228;-76
2023/07/11 01:29:30;;;;;;;4.10;2.07;;;;;;;;;;617122;23;1093;-76
2023/07/11 01:29:48;;;;;;;7.10;2.30;;;;;;;;;;617900;23;953;-76
2023/07/11 01:30:06;;;;;;;6.18;2.22;;;;;;;;;;618759;23;1274;-76
2023/07/11 01:30:22;;;;;;;3.78;2.13;;;;;;;;;;618135;23;1607;-77
2023/07/11 01:30:38;;;;;;;4.15;2.10;;;;;;;;;;621443;23;1399;-76
2023/07/11 01:30:54;;;;;;;3.60;2.05;;;;;;;;;;624218;23;1250;-76
2023/07/11 01:31:09;;;;;;;3.97;2.20;;;;;;;;;;627137;23;1308;-76
2023/07/11 01:31:45;;;;;;;3.60;2.25;;;;;;;;;;628321;23;850;-77
2023/07/11 01:32:01;;;;;;;6.10;2.30;;;;;;;;;;627361;23;1610;-76
2023/07/11 01:32:17;;;;;;;5.90;2.40;;;;;;;;;;627432;23;799;-76
2023/07/11 01:32:32;;;;;;;4.00;2.38;;;;;;;;;;627792;23;1604;-76
2023/07/11 01:32:48;;;;;;;3.50;2.30;;;;;;;;;;629879;23;879;-76
2023/07/11 01:33:04;;;;;;;2.92;2.17;;;;;;;;;;626691;23;1285;-77
2023/07/11 01:33:19;;;;;;;3.70;2.20;;;;;;;;;;625355;23;1371;-76
2023/07/11 01:33:34;;;;;;;5.03;2.38;;;;;;;;;;624830;23;815;-77
2023/07/11 01:33:50;;;;;;;4.80;2.30;;;;;;;;;;624744;23;1385;-77
2023/07/11 01:34:07;;;;;;;4.07;2.20;;;;;;;;;;623813;23;1192;-76
2023/07/11 01:34:22;;;;;;;4.10;2.10;;;;;;;;;;625179;23;938;-76
2023/07/11 01:34:38;;;;;;;4.45;2.20;;;;;;;;;;624155;23;1914;-77
2023/07/11 01:34:53;;;;;;;5.28;2.30;;;;;;;;;;622946;23;1343;-77
2023/07/11 01:35:09;;;;;;;4.67;2.30;;;;;;;;;;625735;23;1221;-77
2023/07/11 01:35:24;;;;;;;3.72;2.20;;;;;;;;;;624620;23;1297;-77
2023/07/11 01:35:40;;;;;;;4.43;2.30;;;;;;;;;;625875;23;907;-77
2023/07/11 01:35:56;;;;;;;5.27;2.30;;;;;;;;;;624699;23;1659;-77
2023/07/11 01:36:11;;;;;;;4.55;2.30;;;;;;;;;;624023;23;752;-76
2023/07/11 01:36:26;;;;;;;4.23;2.10;;;;;;;;;;624200;23;1251;-76
2023/07/11 01:36:42;;;;;;;3.72;2.10;;;;;;;;;;624717;23;1310;-77
2023/07/11 01:36:57;;;;;;;2.90;2.27;;;;;;;;;;624671;23;1123;-77
2023/07/11 01:37:13;;;;;;;3.00;2.30;;;;;;;;;;627830;23;784;-76
2023/07/11 01:37:28;;;;;;;3.60;2.20;;;;;;;;;;627777;23;1261;-77
2023/07/11 01:37:44;;;;;;;3.63;2.15;;;;;;;;;;627381;23;1303;-76
2023/07/11 01:37:59;;;;;;;2.90;2.13;;;;;;;;;;624754;23;1218;-76
2023/07/11 01:38:14;;;;;;;3.23;2.20;;;;;;;;;;624834;23;1283;-76
2023/07/11 01:38:30;;;;;;;3.95;2.38;;;;;;;;;;625741;23;886;-76
2023/07/11 01:38:45;;;;;;;3.20;2.20;;;;;;;;;;625662;23;819;-77
2023/07/11 01:39:00;;;;;;;2.75;2.08;;;;;;;;;;624262;23;1188;-76
2023/07/11 01:39:16;;;;;;;3.37;2.20;;;;;;;;;;625394;23;792;-77
2023/07/11 01:39:32;;;;;;;3.13;2.10;;;;;;;;;;625545;23;1204;-76
2023/07/11 01:39:47;;;;;;;3.63;2.10;;;;;;;;;;627908;23;772;-76
2023/07/11 01:40:05;;;;;;;4.43;2.27;;;;;;;;;;628411;23;1273;-76
2023/07/11 01:40:21;;;;;;;3.60;2.20;;;;;;;;;;627682;23;1254;-76
2023/07/11 01:40:36;;;;;;;3.13;2.10;;;;;;;;;;628079;23;1244;-77
2023/07/11 01:40:52;;;;;;;3.67;2.20;;;;;;;;;;629427;23;1691;-76
2023/07/11 01:41:08;;;;;;;4.35;2.33;;;;;;;;;;631340;23;806;-76
2023/07/11 01:41:24;;;;;;;3.75;2.13;;;;;;;;;;631562;23;1163;-77
2023/07/11 01:41:39;;;;;;;3.60;2.10;;;;;;;;;;630458;23;1397;-77
2023/07/11 01:41:54;;;;;;;3.58;2.13;;;;;;;;;;628586;23;1152;-76
2023/07/11 01:42:10;;;;;;;6.00;2.20;;;;;;;;;;628035;23;938;-77
2023/07/11 01:42:26;;;;;;;8.57;2.50;;;;;;;;;;624702;23;1322;-76
2023/07/11 01:42:42;;;;;;;7.18;2.45;;;;;;;;;;626330;23;995;-77
2023/07/11 01:42:57;;;;;;;4.78;2.15;;;;;;;;;;625455;23;1297;-77
2023/07/11 01:43:14;;;;;;;3.88;2.35;;;;;;;;;;625158;23;1203;-77
2023/07/11 01:43:29;;;;;;;4.18;2.60;;;;;;;;;;625622;23;807;-76
2023/07/11 01:43:45;;;;;;;4.10;2.50;;;;;;;;;;629262;23;1320;-76
2023/07/11 01:44:01;;;;;;;3.73;2.30;;;;;;;;;;630037;23;1329;-76